createdAt,value
2019-02-04T00:01:31.665Z,73.82
2019-02-04T00:04:01.253Z,73.68
2019-02-04T00:06:30.884Z,73.11
2019-02-04T00:09:00.443Z,73.72
2019-02-04T00:11:30.164Z,73.69
2019-02-04T00:13:59.794Z,72.80
2019-02-04T00:16:40.351Z,73.23
2019-02-04T00:19:01.154Z,71.18
2019-02-04T00:21:30.710Z,71.12
2019-02-04T00:24:00.361Z,71.31
2019-02-04T00:26:29.964Z,70.32
2019-02-04T00:28:59.586Z,71.12
2019-02-04T00:31:29.282Z,72.19
2019-02-04T00:33:59.032Z,72.88
2019-02-04T00:36:28.700Z,73.47
2019-02-04T00:38:58.306Z,74.67
2019-02-04T00:41:28.033Z,74.95
2019-02-04T00:43:57.926Z,75.32
2019-02-04T00:46:27.605Z,75.41
2019-02-04T00:48:57.253Z,75.74
2019-02-04T00:51:26.815Z,75.91
2019-02-04T00:53:56.468Z,76.84
2019-02-04T00:56:26.105Z,77.19
2019-02-04T00:58:55.722Z,78.09
2019-02-04T01:01:25.413Z,78.14
2019-02-04T01:03:55.009Z,79.28
2019-02-04T01:06:24.606Z,80.21
2019-02-04T01:08:55.153Z,81.39
2019-02-04T01:11:26.495Z,81.69
2019-02-04T01:13:56.132Z,82.29
2019-02-04T01:16:25.915Z,82.98
2019-02-04T01:18:55.475Z,83.62
2019-02-04T01:21:25.120Z,83.62
2019-02-04T01:23:54.766Z,84.19
2019-02-04T01:26:24.319Z,84.73
2019-02-04T01:28:53.965Z,85.17
2019-02-04T01:31:23.478Z,85.55
2019-02-04T01:33:53.138Z,86.20
2019-02-04T01:36:22.764Z,87.28
2019-02-04T01:38:52.727Z,88.22
2019-02-04T01:41:22.350Z,88.62
2019-02-04T01:43:52.028Z,88.64
2019-02-04T01:46:21.674Z,88.96
2019-02-04T01:48:51.329Z,89.03
2019-02-04T01:51:20.856Z,89.59
2019-02-04T01:53:50.645Z,89.78
2019-02-04T01:56:20.403Z,89.37
2019-02-04T01:58:50.057Z,89.54
2019-02-04T02:01:19.667Z,89.19
2019-02-04T02:03:49.238Z,88.77
2019-02-04T02:06:18.978Z,88.84
2019-02-04T02:08:48.524Z,88.93
2019-02-04T02:11:18.134Z,89.43
2019-02-04T02:13:47.706Z,90.00
2019-02-04T02:16:17.268Z,89.85
2019-02-04T02:18:46.786Z,89.98
2019-02-04T02:21:17.674Z,90.32
2019-02-04T02:23:47.362Z,90.58
2019-02-04T02:26:17.002Z,90.62
2019-02-04T02:28:46.581Z,89.83
2019-02-04T02:31:16.318Z,89.49
2019-02-04T02:33:46.104Z,89.22
2019-02-04T02:36:15.620Z,89.00
2019-02-04T02:38:45.356Z,88.72
2019-02-04T02:41:14.922Z,88.74
2019-02-04T02:43:44.447Z,88.39
2019-02-04T02:46:14.174Z,88.08
2019-02-04T02:48:44.020Z,88.01
2019-02-04T02:51:13.683Z,87.98
2019-02-04T02:53:43.364Z,88.89
2019-02-04T02:56:13.004Z,89.81
2019-02-04T02:58:42.680Z,90.26
2019-02-04T03:01:12.310Z,90.20
2019-02-04T03:03:42.200Z,90.74
2019-02-04T03:06:11.853Z,90.12
2019-02-04T03:08:41.371Z,90.01
2019-02-04T03:11:11.075Z,89.88
2019-02-04T03:13:40.848Z,90.13
2019-02-04T03:16:11.063Z,89.92
2019-02-04T03:18:40.668Z,90.00
2019-02-04T03:21:10.287Z,90.43
2019-02-04T03:23:39.926Z,90.50
2019-02-04T03:26:09.707Z,91.02
2019-02-04T03:28:39.323Z,91.34
2019-02-04T03:31:09.170Z,91.92
2019-02-04T03:33:38.728Z,92.62
2019-02-04T03:36:08.365Z,92.95
2019-02-04T03:38:37.944Z,93.42
2019-02-04T03:41:07.519Z,94.06
2019-02-04T03:43:37.206Z,94.05
2019-02-04T03:46:06.975Z,94.06
2019-02-04T03:48:36.521Z,94.00
2019-02-04T03:51:06.118Z,95.10
2019-02-04T03:53:35.798Z,95.44
2019-02-04T03:56:05.450Z,96.85
2019-02-04T03:58:35.623Z,97.34
2019-02-04T04:01:05.294Z,97.81
2019-02-04T04:03:34.948Z,97.95
2019-02-04T04:06:04.653Z,97.53
2019-02-04T04:08:34.393Z,97.88
2019-02-04T04:11:04.074Z,99.66
2019-02-04T04:13:33.730Z,100.00
2019-02-04T04:16:03.391Z,100.00
2019-02-04T04:18:32.955Z,100.00
2019-02-04T04:21:02.560Z,100.00
2019-02-04T04:23:32.211Z,100.00
2019-02-04T04:26:02.289Z,100.00
2019-02-04T04:28:31.888Z,100.00
2019-02-04T04:31:01.590Z,100.00
2019-02-04T04:33:31.261Z,100.00
2019-02-04T04:36:00.898Z,100.00
2019-02-04T04:38:30.474Z,100.00
2019-02-04T04:41:00.256Z,100.00
2019-02-04T04:43:29.994Z,100.00
2019-02-04T04:45:59.626Z,100.00
2019-02-04T04:48:29.380Z,100.00
2019-02-04T04:50:59.045Z,100.00
2019-02-04T04:53:28.771Z,100.00
2019-02-04T04:55:58.438Z,100.00
2019-02-04T04:58:28.083Z,100.00
2019-02-04T05:00:57.669Z,100.00
2019-02-04T05:03:27.327Z,100.00
2019-02-04T05:05:56.855Z,100.00
2019-02-04T05:08:27.023Z,100.00
2019-02-04T05:10:56.806Z,98.75
2019-02-04T05:13:26.422Z,98.75
2019-02-04T05:15:56.072Z,97.67
2019-02-04T05:18:25.602Z,96.91
2019-02-04T05:20:55.286Z,96.98
2019-02-04T05:23:25.045Z,96.79
2019-02-04T05:25:54.684Z,96.65
2019-02-04T05:28:24.296Z,97.00
2019-02-04T05:30:54.075Z,97.29
2019-02-04T05:33:23.717Z,97.33
2019-02-04T05:35:53.596Z,97.27
2019-02-04T05:38:23.218Z,97.15
2019-02-04T05:40:52.758Z,96.72
2019-02-04T05:43:22.411Z,96.48
2019-02-04T05:45:51.958Z,96.60
2019-02-04T05:48:21.592Z,96.67
2019-02-04T05:50:51.466Z,96.36
2019-02-04T05:53:21.071Z,96.96
2019-02-04T05:55:50.766Z,97.30
2019-02-04T05:58:20.414Z,97.06
2019-02-04T06:00:51.479Z,96.50
2019-02-04T06:03:21.125Z,95.81
2019-02-04T06:05:50.753Z,94.80
2019-02-04T06:08:20.442Z,94.25
2019-02-04T06:10:49.990Z,93.59
2019-02-04T06:13:19.539Z,92.58
2019-02-04T06:15:49.091Z,91.75
2019-02-04T06:18:19.060Z,91.25
2019-02-04T06:20:48.650Z,89.95
2019-02-04T06:23:19.194Z,89.81
2019-02-04T06:25:48.859Z,88.27
2019-02-04T06:28:18.403Z,88.40
2019-02-04T06:30:47.968Z,88.26
2019-02-04T06:33:17.574Z,88.22
2019-02-04T06:35:47.192Z,87.66
2019-02-04T06:38:16.869Z,88.29
2019-02-04T06:40:46.429Z,88.21
2019-02-04T06:43:16.206Z,87.79
2019-02-04T06:45:46.195Z,87.45
2019-02-04T06:48:15.804Z,87.01
2019-02-04T06:50:45.367Z,86.27
2019-02-04T06:53:14.916Z,84.97
2019-02-04T06:55:44.545Z,83.94
2019-02-04T06:58:14.230Z,82.92
2019-02-04T07:00:44.190Z,82.28
2019-02-04T07:03:13.855Z,81.81
2019-02-04T07:05:44.198Z,81.15
2019-02-04T07:08:13.943Z,79.61
2019-02-04T07:10:43.639Z,78.54
2019-02-04T07:13:13.320Z,78.58
2019-02-04T07:15:43.044Z,77.72
2019-02-04T07:18:12.628Z,77.13
2019-02-04T07:20:42.328Z,77.05
2019-02-04T07:23:11.864Z,76.69
2019-02-04T07:25:41.487Z,76.26
2019-02-04T07:28:11.366Z,77.62
2019-02-04T07:30:40.920Z,77.68
2019-02-04T07:33:10.487Z,77.16
2019-02-04T07:35:40.222Z,77.26
2019-02-04T07:38:09.902Z,77.02
2019-02-04T07:40:39.536Z,77.49
2019-02-04T07:43:09.079Z,77.27
2019-02-04T07:45:38.630Z,78.14
2019-02-04T07:48:08.341Z,77.09
2019-02-04T07:50:38.157Z,76.62
2019-02-04T07:53:07.851Z,76.11
2019-02-04T07:55:37.569Z,76.08
2019-02-04T07:58:07.512Z,75.13
2019-02-04T08:00:37.091Z,72.60
2019-02-04T08:03:06.729Z,71.78
2019-02-04T08:05:36.403Z,72.01
2019-02-04T08:08:06.052Z,72.15
2019-02-04T08:10:35.616Z,71.58
2019-02-04T08:13:05.450Z,71.89
2019-02-04T08:15:36.935Z,70.05
2019-02-04T08:18:07.459Z,70.06
2019-02-04T08:20:37.118Z,70.52
2019-02-04T08:23:06.672Z,71.26
2019-02-04T08:25:36.309Z,70.62
2019-02-04T08:28:05.967Z,69.54
2019-02-04T08:30:38.373Z,69.91
2019-02-04T08:33:08.171Z,68.17
2019-02-04T08:35:37.693Z,68.20
2019-02-04T08:38:07.384Z,69.19
2019-02-04T08:40:37.472Z,68.64
2019-02-04T08:43:07.219Z,67.57
2019-02-04T08:45:36.786Z,66.70
2019-02-04T08:48:06.485Z,66.84
2019-02-04T08:50:36.093Z,66.74
2019-02-04T08:53:05.851Z,65.81
2019-02-04T08:55:36.139Z,66.18
2019-02-04T08:58:06.194Z,65.54
2019-02-04T09:00:35.869Z,64.97
2019-02-04T09:03:05.600Z,63.78
2019-02-04T09:05:35.163Z,63.57
2019-02-04T09:08:04.866Z,63.40
2019-02-04T09:10:35.017Z,62.32
2019-02-04T09:13:04.560Z,62.01
2019-02-04T09:15:34.187Z,61.98
2019-02-04T09:18:03.975Z,61.57
2019-02-04T09:20:33.640Z,60.96
2019-02-04T09:23:06.076Z,60.43
2019-02-04T09:25:34.724Z,59.64
2019-02-04T09:28:04.400Z,58.54
2019-02-04T09:30:34.054Z,59.99
2019-02-04T09:33:03.658Z,59.86
2019-02-04T09:35:33.193Z,59.84
2019-02-04T09:38:03.349Z,59.87
2019-02-04T09:40:35.999Z,59.27
2019-02-04T09:43:05.566Z,57.62
2019-02-04T09:45:35.180Z,55.58
2019-02-04T09:48:05.678Z,53.70
2019-02-04T09:50:35.508Z,50.82
2019-02-04T09:53:05.193Z,49.47
2019-02-04T09:55:36.340Z,49.16
2019-02-04T09:58:06.237Z,48.47
2019-02-04T10:00:36.019Z,47.21
2019-02-04T10:03:05.999Z,45.52
2019-02-04T10:05:35.560Z,45.48
2019-02-04T10:08:05.752Z,44.94
2019-02-04T10:10:35.395Z,44.08
2019-02-04T10:13:05.362Z,43.52
2019-02-04T10:15:36.983Z,42.66
2019-02-04T10:18:07.570Z,40.28
2019-02-04T10:20:37.574Z,39.79
2019-02-04T10:23:07.642Z,39.17
2019-02-04T10:25:39.039Z,39.68
2019-02-04T10:28:09.340Z,40.03
2019-02-04T10:30:38.850Z,39.85
2019-02-04T10:33:08.394Z,38.31
2019-02-04T10:35:37.918Z,37.53
2019-02-04T10:38:07.501Z,37.19
2019-02-04T10:40:37.039Z,37.26
2019-02-04T10:43:06.616Z,36.73
2019-02-04T10:45:36.191Z,37.52
2019-02-04T10:48:05.857Z,37.44
2019-02-04T10:50:45.863Z,37.09
2019-02-04T10:53:09.350Z,36.11
2019-02-04T10:55:39.047Z,35.71
2019-02-04T10:58:10.333Z,36.03
2019-02-04T11:00:41.477Z,36.25
2019-02-04T11:03:11.064Z,35.91
2019-02-04T11:05:40.665Z,36.47
2019-02-04T11:08:11.354Z,36.65
2019-02-04T11:10:41.008Z,36.93
2019-02-04T11:13:15.341Z,36.54
2019-02-04T11:15:45.572Z,35.26
2019-02-04T11:18:15.702Z,34.37
2019-02-04T11:20:57.228Z,34.03
2019-02-04T11:23:16.681Z,32.56
2019-02-04T11:25:46.290Z,30.99
2019-02-04T11:28:16.670Z,30.51
2019-02-04T11:30:52.183Z,30.32
2019-02-04T11:33:22.046Z,29.98
2019-02-04T11:35:51.746Z,30.99
2019-02-04T11:38:21.398Z,30.67
2019-02-04T11:40:51.147Z,29.91
2019-02-04T11:43:20.833Z,31.06
2019-02-04T11:45:50.463Z,29.70
2019-02-04T11:48:20.079Z,28.82
2019-02-04T11:50:49.745Z,28.62
2019-02-04T11:53:19.398Z,27.20
2019-02-04T11:55:49.565Z,26.16
2019-02-04T11:58:19.153Z,25.67
2019-02-04T12:00:48.808Z,26.06
2019-02-04T12:03:18.484Z,26.30
2019-02-04T12:05:48.055Z,25.86
2019-02-04T12:08:19.490Z,26.81
2019-02-04T12:11:15.818Z,29.09
2019-02-04T12:13:45.695Z,31.58
2019-02-04T12:16:15.461Z,34.03
2019-02-04T12:18:45.289Z,35.51
2019-02-04T12:21:21.724Z,36.33
2019-02-04T12:23:46.228Z,37.75
2019-02-04T12:26:15.795Z,39.04
2019-02-04T12:28:45.348Z,39.79
2019-02-04T12:31:15.010Z,40.10
2019-02-04T12:33:44.695Z,42.10
2019-02-04T12:36:14.684Z,42.46
2019-02-04T12:38:44.321Z,44.25
2019-02-04T12:41:13.880Z,44.51
2019-02-04T12:43:43.448Z,46.12
2019-02-04T12:46:13.052Z,45.78
2019-02-04T12:48:42.883Z,46.00
2019-02-04T12:51:12.666Z,46.95
2019-02-04T12:53:42.208Z,47.31
2019-02-04T12:56:11.815Z,45.94
2019-02-04T12:58:41.338Z,46.31
2019-02-04T13:01:11.004Z,46.40
2019-02-04T13:03:40.572Z,47.12
2019-02-04T13:06:11.384Z,47.77
2019-02-04T13:08:41.052Z,48.82
2019-02-04T13:11:10.675Z,46.99
2019-02-04T13:13:40.364Z,47.74
2019-02-04T13:16:10.192Z,48.40
2019-02-04T13:18:39.910Z,48.22
2019-02-04T13:21:10.008Z,50.37
2019-02-04T13:23:39.653Z,50.40
2019-02-04T13:26:09.229Z,52.68
2019-02-04T13:28:39.148Z,55.33
2019-02-04T13:31:08.757Z,57.73
2019-02-04T13:33:38.387Z,59.70
2019-02-04T13:36:08.071Z,60.99
2019-02-04T13:38:37.637Z,62.27
2019-02-04T13:41:09.280Z,63.22
2019-02-04T13:43:38.703Z,63.84
2019-02-04T13:46:08.292Z,64.85
2019-02-04T13:48:37.847Z,66.30
2019-02-04T13:51:07.464Z,67.46
2019-02-04T13:53:37.124Z,67.98
2019-02-04T13:56:06.664Z,68.44
2019-02-04T13:58:36.300Z,68.74
2019-02-04T14:01:06.086Z,69.28
2019-02-04T14:03:35.733Z,69.52
2019-02-04T14:06:05.260Z,69.87
2019-02-04T14:08:34.822Z,70.09
2019-02-04T14:11:04.758Z,70.31
2019-02-04T14:13:34.350Z,70.90
2019-02-04T14:16:04.162Z,72.02
2019-02-04T14:18:33.788Z,72.62
2019-02-04T14:21:03.602Z,73.03
2019-02-04T14:23:33.225Z,73.29
2019-02-04T14:26:02.876Z,74.03
2019-02-04T14:28:32.524Z,74.70
2019-02-04T14:31:02.208Z,74.91
2019-02-04T14:33:31.926Z,75.20
2019-02-04T14:36:03.305Z,76.29
2019-02-04T14:38:33.516Z,76.80
2019-02-04T14:41:03.194Z,77.56
2019-02-04T14:43:41.494Z,78.35
2019-02-04T14:46:40.756Z,77.96
2019-02-04T14:49:47.488Z,78.28
2019-02-04T14:52:34.529Z,79.18
2019-02-04T14:55:52.269Z,80.04
2019-02-04T14:58:58.030Z,80.70
2019-02-04T15:02:00.812Z,81.03
2019-02-04T15:05:14.725Z,82.14
2019-02-04T15:08:43.214Z,82.45
2019-02-04T15:11:34.389Z,83.11
2019-02-04T15:14:31.097Z,83.20
2019-02-04T15:17:25.081Z,84.01
2019-02-04T15:20:39.843Z,84.43
2019-02-04T15:23:45.634Z,84.46
2019-02-04T15:27:12.627Z,85.05
2019-02-04T15:30:14.518Z,85.91
2019-02-04T15:33:24.296Z,86.25
2019-02-04T15:36:50.091Z,87.02
2019-02-04T15:39:35.687Z,87.08
2019-02-04T15:42:36.414Z,87.65
2019-02-04T15:45:34.149Z,87.62
2019-02-04T15:48:11.463Z,87.68
2019-02-04T15:51:01.018Z,87.61
2019-02-04T15:53:30.644Z,87.06
2019-02-04T15:56:01.009Z,87.26
2019-02-04T15:58:30.963Z,87.59
2019-02-04T16:01:00.609Z,88.07
2019-02-04T16:03:30.306Z,88.36
2019-02-04T16:05:59.894Z,88.67
2019-02-04T16:08:29.440Z,89.06
2019-02-04T16:10:59.075Z,89.06
2019-02-04T16:13:28.809Z,88.83
2019-02-04T16:15:58.462Z,88.76
2019-02-04T16:18:28.128Z,88.36
2019-02-04T16:20:57.790Z,88.01
2019-02-04T16:23:27.359Z,87.81
2019-02-04T16:25:56.914Z,87.82
2019-02-04T16:28:26.571Z,87.92
2019-02-04T16:30:56.370Z,88.60
2019-02-04T16:33:26.024Z,88.84
2019-02-04T16:35:55.594Z,89.28
2019-02-04T16:38:25.228Z,89.39
2019-02-04T16:40:55.014Z,89.91
2019-02-04T16:43:24.576Z,90.08
2019-02-04T16:45:54.249Z,89.50
2019-02-04T16:48:23.845Z,88.71
2019-02-04T16:51:10.499Z,87.67
2019-02-04T16:53:24.938Z,87.44
2019-02-04T16:55:54.922Z,87.88
2019-02-04T16:58:24.513Z,87.41
2019-02-04T17:00:54.249Z,87.35
2019-02-04T17:03:23.930Z,88.17
2019-02-04T17:05:53.477Z,87.87
2019-02-04T17:08:23.143Z,88.36
2019-02-04T17:10:53.106Z,88.46
2019-02-04T17:13:22.638Z,88.63
2019-02-04T17:15:52.287Z,88.84
2019-02-04T17:18:21.963Z,88.87
2019-02-04T17:20:51.613Z,89.49
2019-02-04T17:23:22.665Z,89.72
2019-02-04T17:25:52.420Z,90.20
2019-02-04T17:28:21.966Z,90.46
2019-02-04T17:30:51.569Z,90.85
2019-02-04T17:33:21.158Z,91.00
2019-02-04T17:35:50.785Z,91.15
2019-02-04T17:38:20.716Z,91.48
2019-02-04T17:40:50.290Z,92.28
2019-02-04T17:43:19.907Z,92.57
2019-02-04T17:45:49.459Z,93.10
2019-02-04T17:48:19.133Z,93.68
2019-02-04T17:50:48.696Z,93.85
2019-02-04T17:53:18.674Z,93.85
2019-02-04T17:55:48.337Z,94.66
2019-02-04T17:58:17.977Z,94.54
2019-02-04T18:00:50.540Z,94.56
2019-02-04T18:03:20.157Z,95.04
2019-02-04T18:05:49.813Z,95.56
2019-02-04T18:08:19.466Z,95.49
2019-02-04T18:10:49.036Z,95.69
2019-02-04T18:13:18.603Z,95.62
2019-02-04T18:15:48.200Z,95.91
2019-02-04T18:18:17.929Z,95.63
2019-02-04T18:20:47.864Z,95.46
2019-02-04T18:23:17.479Z,95.56
2019-02-04T18:25:47.116Z,95.64
2019-02-04T18:28:16.733Z,96.29
2019-02-04T18:30:46.270Z,96.52
2019-02-04T18:33:15.850Z,96.88
2019-02-04T18:35:45.431Z,97.00
2019-02-04T18:38:15.027Z,97.06
2019-02-04T18:40:44.838Z,97.21
2019-02-04T18:43:14.623Z,97.34
2019-02-04T18:45:44.160Z,97.34
2019-02-04T18:48:13.904Z,97.90
2019-02-04T18:50:43.846Z,97.76
2019-02-04T18:53:13.481Z,97.87
2019-02-04T18:55:43.123Z,97.95
2019-02-04T18:58:12.852Z,97.82
2019-02-04T19:00:42.395Z,97.55
2019-02-04T19:03:17.291Z,97.60
2019-02-04T19:05:43.268Z,98.00
2019-02-04T19:08:12.947Z,98.14
2019-02-04T19:10:42.489Z,98.27
2019-02-04T19:13:12.190Z,98.31
2019-02-04T19:15:42.155Z,98.95
2019-02-04T19:18:14.414Z,99.14
2019-02-04T19:20:44.135Z,99.24
2019-02-04T19:23:13.743Z,99.55
2019-02-04T19:25:43.536Z,99.95
2019-02-04T19:28:13.271Z,100.00
2019-02-04T19:31:07.751Z,100.00
2019-02-04T19:33:37.321Z,100.00
2019-02-04T19:36:08.353Z,100.00
2019-02-04T19:38:37.959Z,100.00
2019-02-04T19:41:07.620Z,100.00
2019-02-04T19:43:37.330Z,100.00
2019-02-04T19:46:06.978Z,100.00
2019-02-04T19:48:36.645Z,100.00
2019-02-04T19:51:06.302Z,100.00
2019-02-04T19:53:36.342Z,100.00
2019-02-04T19:56:06.079Z,100.00
2019-02-04T19:58:35.750Z,100.00
2019-02-04T20:01:05.507Z,100.00
2019-02-04T20:03:37.075Z,100.00
2019-02-04T20:06:07.272Z,100.00
2019-02-04T20:08:37.013Z,100.00
2019-02-04T20:11:06.650Z,100.00
2019-02-04T20:13:36.346Z,100.00
2019-02-04T20:16:06.010Z,100.00
2019-02-04T20:18:35.629Z,100.00
2019-02-04T20:21:05.167Z,100.00
2019-02-04T20:23:34.716Z,100.00
2019-02-04T20:26:04.351Z,100.00
2019-02-04T20:28:34.063Z,100.00
2019-02-04T20:31:03.640Z,100.00
2019-02-04T20:33:33.206Z,100.00
2019-02-04T20:36:02.832Z,100.00
2019-02-04T20:38:32.449Z,100.00
2019-02-04T20:41:02.096Z,100.00
2019-02-04T20:43:31.706Z,100.00
2019-02-04T20:46:01.265Z,100.00
2019-02-04T20:48:30.802Z,100.00
2019-02-04T20:51:00.557Z,100.00
2019-02-04T20:53:30.235Z,100.00
2019-02-04T20:55:59.936Z,100.00
2019-02-04T20:58:29.478Z,100.00
2019-02-04T21:00:59.193Z,100.00
2019-02-04T21:03:28.822Z,100.00
2019-02-04T21:05:58.381Z,100.00
2019-02-04T21:08:28.086Z,100.00
2019-02-04T21:10:57.630Z,100.00
2019-02-04T21:13:27.290Z,100.00
2019-02-04T21:15:57.035Z,100.00
2019-02-04T21:18:26.711Z,100.00
2019-02-04T21:20:56.322Z,100.00
2019-02-04T21:23:25.964Z,100.00
2019-02-04T21:25:55.513Z,100.00
2019-02-04T21:28:25.158Z,100.00
2019-02-04T21:30:54.850Z,100.00
2019-02-04T21:33:24.414Z,100.00
2019-02-04T21:35:54.274Z,100.00
2019-02-04T21:38:25.706Z,100.00
2019-02-04T21:40:55.438Z,100.00
2019-02-04T21:43:25.004Z,100.00
2019-02-04T21:45:54.559Z,100.00
2019-02-04T21:48:24.222Z,100.00
2019-02-04T21:50:53.772Z,100.00
2019-02-04T21:53:23.520Z,100.00
2019-02-04T21:55:53.150Z,100.00
2019-02-04T21:58:22.818Z,100.00
2019-02-04T22:00:52.460Z,100.00
2019-02-04T22:03:22.215Z,100.00
2019-02-04T22:05:51.860Z,100.00
2019-02-04T22:08:21.435Z,100.00
2019-02-04T22:10:51.587Z,100.00
2019-02-04T22:13:21.259Z,100.00
2019-02-04T22:15:51.219Z,100.00
2019-02-04T22:18:20.939Z,100.00
2019-02-04T22:20:50.858Z,100.00
2019-02-04T22:23:20.446Z,100.00
2019-02-04T22:25:50.283Z,100.00
2019-02-04T22:28:19.940Z,100.00
2019-02-04T22:30:49.988Z,100.00
2019-02-04T22:33:19.598Z,100.00
2019-02-04T22:35:49.473Z,99.47
2019-02-04T22:38:19.279Z,99.74
2019-02-04T22:40:49.057Z,99.61
2019-02-04T22:43:18.744Z,99.34
2019-02-04T22:45:48.380Z,99.30
2019-02-04T22:48:18.151Z,99.19
2019-02-04T22:50:47.886Z,97.94
2019-02-04T22:53:17.524Z,97.27
2019-02-04T22:55:47.156Z,97.41
2019-02-04T22:58:16.854Z,97.26
2019-02-04T23:01:31.957Z,96.96
2019-02-04T23:04:01.559Z,96.58
2019-02-04T23:06:31.232Z,97.20
2019-02-04T23:09:01.250Z,97.35
2019-02-04T23:11:30.864Z,97.34
2019-02-04T23:14:00.548Z,97.09
2019-02-04T23:16:30.245Z,97.62
2019-02-04T23:18:59.832Z,97.49
2019-02-04T23:21:29.623Z,96.96
2019-02-04T23:23:59.324Z,97.26
2019-02-04T23:26:28.885Z,97.47
2019-02-04T23:28:58.568Z,97.21
2019-02-04T23:31:28.132Z,96.95
2019-02-04T23:33:57.888Z,96.81
2019-02-04T23:36:27.562Z,96.89
2019-02-04T23:38:57.272Z,96.95
2019-02-04T23:41:26.821Z,96.58
2019-02-04T23:43:56.385Z,96.70
2019-02-04T23:46:26.024Z,97.23
2019-02-04T23:48:55.598Z,97.79
2019-02-04T23:51:25.645Z,98.25
2019-02-04T23:53:55.430Z,98.07
2019-02-04T23:56:25.091Z,97.96
2019-02-04T23:58:54.640Z,98.24
